EDHL

Lübeck Blankensee Airport

Lübeck, Germany
METAR EDHL 181620Z 35005KT CAVOK 12/06 Q1024
Observed Flight Rules
Oct-18 @ 16:20 UTC (29 minutes ago) Visual Flight Rules
Wind Visibility Clouds
350° at 5 knots 10,000+ meters
  • Clear skies
Temperatures Readings
Current 12°C / 54°F
Dewpoint 6°C / 43°F
Humidity 67%
Altimeter 30.24" Hg
Pressure 1024 hPa
Elevation 16
METAR EDHL 181620Z 35005KT CAVOK 12/06 Q1024
Observed Flight Rules
Oct-18 @ 16:20 UTC
(29 minutes ago)
VFR
Wind Visibility
350° at 5 knots 10,000+ meters
Clouds
  • Clear skies
Temperature Dewpoint
12°C / 54°F 6°C / 43°F
Humidity Altimeter Pressure
67% 30.24" Hg 1024 hPa